Terminal Aerodrome Forecast
Issued by NWS Louisville, KY

Home | Current Version | Previous Version | Text Only | Print | Product List | Glossary On
Versions: 1 2 3 4 5 6 7 8 9 10 11 12 13 14 15 16 17 18 19 20 21 22
165
FTUS43 KLMK 030158 AAA
TAFSDF
TAF AMD
KSDF 030158Z 0302/0406 32006KT P6SM SCT030 BKN040
      TEMPO 0303/0306 BKN025
     FM030600 33004KT 6SM BR BKN015
      TEMPO 0306/0309 6SM BR SCT015 BKN025
     FM031500 32005KT P6SM BKN025
     FM031900 31006KT P6SM BKN035=

USA.gov is the U.S. government's official web portal to all federal, state and local government web resources and services.